| time (UTC) | temp C | wind direction | speed KPH | gust KPH | rain 1hr cm | rain 24hr cm | rain mn cm | humidity % | barometer mb |
| 20260510071522 | 15 | 114 | 0.0 | 1.6 | 0.00 | 0.00 | 0.00 | 72 | 1031.9 |
| 20260510070022 | 16 | 114 | 0.0 | 0.0 | 0.00 | 0.00 | 0.00 | 69 | 1031.8 |
| 20260510064520 | 16 | 113 | 0.0 | 4.8 | 0.00 | 0.00 | 0.00 | 67 | 1031.7 |
| 20260510063020 | 17 | 151 | 0.0 | 11.3 | 0.00 | 0.00 | 0.00 | 65 | 1031.6 |
| 20260510061516 | 17 | 124 | 1.6 | 8.0 | 0.00 | 0.00 | 0.00 | 64 | 1031.6 |
| 20260510060005 | 17 | 116 | 3.2 | 9.7 | 0.00 | 0.00 | 0.00 | 64 | 1031.5 |
| 20260510054504 | 17 | 182 | 0.0 | 4.8 | 0.00 | 0.00 | 0.00 | 65 | 1031.4 |
| 20260510053057 | 17 | 215 | 0.0 | 6.4 | 0.00 | 0.00 | 0.00 | 65 | 1031.4 |
| 20260510051556 | 17 | 182 | 4.8 | 12.9 | 0.00 | 0.00 | 0.00 | 63 | 1031.3 |
| 20260510050044 | 17 | 163 | 3.2 | 9.7 | 0.00 | 0.00 | 0.00 | 64 | 1031.3 |
| 20260510044551 | 17 | 178 | 1.6 | 8.0 | 0.00 | 0.00 | 0.00 | 63 | 1031.2 |
| 20260510043035 | 17 | 104 | 0.0 | 9.7 | 0.00 | 0.00 | 0.00 | 62 | 1031.2 |
| 20260510041518 | 17 | 140 | 1.6 | 6.4 | 0.00 | 0.00 | 0.00 | 64 | 1031.3 |
| 20260510040059 | 17 | 169 | 1.6 | 9.7 | 0.00 | 0.00 | 0.00 | 65 | 1031.5 |
| 20260510034544 | 16 | 183 | 0.0 | 4.8 | 0.00 | 0.00 | 0.00 | 66 | 1031.5 |
| 20260510033039 | 16 | 102 | 1.6 | 6.4 | 0.00 | 0.00 | 0.00 | 65 | 1031.6 |
| 20260510031536 | 16 | 118 | 0.0 | 6.4 | 0.00 | 0.00 | 0.00 | 65 | 1031.5 |
| 20260510030011 | 16 | 138 | 0.0 | 6.4 | 0.00 | 0.00 | 0.00 | 67 | 1031.7 |
| 20260510024556 | 16 | 263 | 0.0 | 4.8 | 0.00 | 0.00 | 0.00 | 68 | 1031.8 |
| 20260510023030 | 15 | 317 | 0.0 | 6.4 | 0.00 | 0.00 | 0.00 | 69 | 1032.1 |
| 20260510021516 | 15 | 309 | 0.0 | 9.7 | 0.00 | 0.00 | 0.00 | 70 | 1032.3 |
| 20260510020006 | 15 | 182 | 3.2 | 9.7 | 0.00 | 0.00 | 0.00 | 69 | 1032.5 |
| 20260510014554 | 15 | 27 | 0.0 | 4.8 | 0.00 | 0.00 | 0.00 | 70 | 1032.6 |
| 20260510013053 | 15 | 269 | 0.0 | 4.8 | 0.00 | 0.00 | 0.00 | 70 | 1032.8 |
| 20260510011555 | 15 | 57 | 0.0 | 1.6 | 0.00 | 0.00 | 0.00 | 72 | 1032.8 |
| 20260510010035 | 15 | 79 | 0.0 | 4.8 | 0.00 | 0.00 | 0.00 | 71 | 1032.8 |
| 20260510004515 | 14 | 184 | 0.0 | 6.4 | 0.00 | 0.00 | 0.00 | 74 | 1032.8 |
| 20260510003057 | 14 | 157 | 0.0 | 4.8 | 0.00 | 0.00 | 0.00 | 76 | 1032.8 |
| 20260510001541 | 13 | 192 | 1.6 | 8.0 | 0.00 | 0.00 | 0.00 | 80 | 1032.7 |
| 20260510000018 | 13 | 254 | 0.0 | 3.2 | 0.00 | 0.00 | 0.00 | 83 | 1032.7 |
| 20260509234503 | 13 | 206 | 1.6 | 11.3 | 0.00 | 0.00 | 0.00 | 91 | 1032.7 |
| 20260509233049 | 12 | 301 | 0.0 | 0.0 | 0.00 | 0.00 | 0.00 | 94 | 1032.6 |
| 20260509231542 | 12 | 300 | 0.0 | 1.6 | 0.00 | 0.00 | 0.00 | 94 | 1032.5 |
| 20260509230019 | 12 | 300 | 0.0 | 0.0 | 0.00 | 0.00 | 0.00 | 95 | 1032.6 |
| 20260509224501 | 12 | 300 | 0.0 | 1.6 | 0.00 | 0.00 | 0.00 | 95 | 1032.5 |
| 20260509223045 | 12 | 300 | 0.0 | 1.6 | 0.00 | 0.00 | 0.00 | 96 | 1032.3 |
| 20260509221537 | 12 | 300 | 0.0 | 0.0 | 0.00 | 0.00 | 0.00 | 95 | 1032.2 |
| 20260509220019 | 11 | 300 | 1.6 | 6.4 | 0.00 | 0.00 | 0.00 | 96 | 1032.0 |
| 20260509214504 | 11 | 336 | 1.6 | 4.8 | 0.00 | 0.00 | 0.00 | 95 | 1031.8 |
| 20260509213050 | 11 | 269 | 0.0 | 0.0 | 0.00 | 0.00 | 0.00 | 95 | 1031.6 |
| 20260509211548 | 11 | 269 | 0.0 | 0.0 | 0.00 | 0.00 | 0.00 | 95 | 1031.4 |
| 20260509210027 | 11 | 269 | 0.0 | 0.0 | 0.00 | 0.00 | 0.00 | 95 | 1031.3 |
| 20260509204519 | 11 | 269 | 0.0 | 0.0 | 0.00 | 0.00 | 0.00 | 95 | 1031.1 |
| 20260509203021 | 11 | 269 | 0.0 | 0.0 | 0.00 | 0.00 | 0.00 | 95 | 1031.0 |
| 20260509201622 | 11 | 269 | 0.0 | 0.0 | 0.00 | 0.00 | 0.00 | 95 | 1031.0 |
| 20260509201501 | 11 | 269 | 0.0 | 0.0 | 0.00 | 0.00 | 0.00 | 95 | 1031.0 |
| 20260509200056 | 11 | 269 | 0.0 | 1.6 | 0.00 | 0.00 | 0.00 | 95 | 1030.9 |
| 20260509194540 | 11 | 269 | 0.0 | 0.0 | 0.00 | 0.00 | 0.00 | 95 | 1030.8 |
| 20260509193032 | 11 | 269 | 0.0 | 3.2 | 0.00 | 0.00 | 0.00 | 95 | 1030.7 |
| 20260509191530 | 12 | 269 | 0.0 | 3.2 | 0.00 | 0.00 | 0.00 | 95 | 1030.5 |
| 20260509190020 | 12 | 269 | 0.0 | 0.0 | 0.00 | 0.00 | 0.00 | 95 | 1030.4 |
| 20260509184511 | 12 | 269 | 0.0 | 1.6 | 0.00 | 0.00 | 0.00 | 95 | 1030.2 |
| 20260509183003 | 12 | 269 | 0.0 | 0.0 | 0.00 | 0.00 | 0.00 | 95 | 1030.0 |
| 20260509181514 | 12 | 269 | 0.0 | 0.0 | 0.00 | 0.00 | 0.00 | 95 | 1029.9 |
| 20260509180004 | 12 | 269 | 0.0 | 0.0 | 0.00 | 0.00 | 0.00 | 95 | 1029.8 |
| 20260509174531 | 11 | 269 | 0.0 | 3.2 | 0.00 | 0.00 | 0.00 | 95 | 1029.9 |
| 20260509173030 | 11 | 269 | 0.0 | 1.6 | 0.00 | 0.00 | 0.00 | 94 | 1029.8 |
| 20260509171519 | 11 | 269 | 0.0 | 1.6 | 0.00 | 0.00 | 0.00 | 94 | 1029.9 |
| 20260509170012 | 11 | 269 | 0.0 | 1.6 | 0.00 | 0.00 | 0.00 | 94 | 1029.9 |
| 20260509164512 | 11 | 269 | 0.0 | 0.0 | 0.00 | 0.00 | 0.00 | 93 | 1030.1 |
| 20260509163002 | 12 | 269 | 0.0 | 0.0 | 0.00 | 0.00 | 0.00 | 93 | 1029.9 |
| 20260509161554 | 12 | 269 | 0.0 | 0.0 | 0.00 | 0.00 | 0.00 | 93 | 1030.1 |
| 20260509160040 | 12 | 269 | 0.0 | 0.0 | 0.00 | 0.00 | 0.00 | 93 | 1030.1 |
| 20260509154524 | 12 | 269 | 0.0 | 0.0 | 0.00 | 0.00 | 0.00 | 93 | 1030.1 |
| 20260509153018 | 12 | 269 | 0.0 | 0.0 | 0.00 | 0.00 | 0.00 | 93 | 1030.1 |
| 20260509151515 | 12 | 269 | 0.0 | 0.0 | 0.00 | 0.00 | 0.00 | 93 | 1030.1 |
| 20260509150004 | 12 | 269 | 0.0 | 1.6 | 0.00 | 0.00 | 0.00 | 93 | 1030.2 |
| 20260509144506 | 12 | 269 | 0.0 | 3.2 | 0.00 | 0.00 | 0.00 | 93 | 1030.2 |
| 20260509143054 | 12 | 298 | 0.0 | 3.2 | 0.00 | 0.00 | 0.00 | 92 | 1030.2 |
| 20260509141554 | 12 | 267 | 1.6 | 4.8 | 0.00 | 0.00 | 0.00 | 92 | 1030.2 |
| 20260509140013 | 12 | 276 | 1.6 | 4.8 | 0.00 | 0.00 | 0.00 | 92 | 1030.2 |
| 20260509134556 | 12 | 281 | 0.0 | 1.6 | 0.00 | 0.00 | 0.00 | 92 | 1030.2 |
| 20260509133049 | 12 | 281 | 0.0 | 1.6 | 0.00 | 0.00 | 0.00 | 92 | 1030.3 |
| 20260509131509 | 12 | 243 | 0.0 | 0.0 | 0.00 | 0.00 | 0.00 | 91 | 1030.4 |
| 20260509130013 | 12 | 243 | 0.0 | 4.8 | 0.00 | 0.00 | 0.00 | 91 | 1030.3 |
| 20260509124505 | 12 | 223 | 0.0 | 0.0 | 0.00 | 0.00 | 0.00 | 91 | 1030.4 |
| 20260509123057 | 12 | 223 | 0.0 | 1.6 | 0.00 | 0.00 | 0.00 | 91 | 1030.4 |
| 20260509121551 | 12 | 223 | 0.0 | 3.2 | 0.00 | 0.00 | 0.00 | 92 | 1030.4 |
| 20260509120048 | 12 | 223 | 0.0 | 1.6 | 0.00 | 0.00 | 0.00 | 92 | 1030.4 |
| 20260509114541 | 12 | 182 | 0.0 | 4.8 | 0.00 | 0.00 | 0.00 | 92 | 1030.3 |
| 20260509113040 | 12 | 276 | 0.0 | 0.0 | 0.00 | 0.00 | 0.00 | 91 | 1030.2 |
| 20260509111515 | 12 | 276 | 0.0 | 0.0 | 0.00 | 0.00 | 0.00 | 91 | 1030.1 |
| 20260509110017 | 11 | 276 | 0.0 | 1.6 | 0.00 | 0.00 | 0.00 | 91 | 1030.1 |
| 20260509104507 | 12 | 276 | 0.0 | 1.6 | 0.00 | 0.00 | 0.00 | 91 | 1029.9 |
| 20260509103104 | 12 | 276 | 1.6 | 4.8 | 0.00 | 0.00 | 0.00 | 90 | 1029.9 |
| 20260509101555 | 12 | 223 | 0.0 | 3.2 | 0.00 | 0.00 | 0.00 | 90 | 1030.0 |
| 20260509100053 | 12 | 223 | 0.0 | 1.6 | 0.00 | 0.00 | 0.00 | 89 | 1030.0 |
| 20260509094553 | 12 | 227 | 0.0 | 4.8 | 0.00 | 0.00 | 0.00 | 89 | 1029.8 |
| 20260509093047 | 13 | 229 | 3.2 | 6.4 | 0.00 | 0.00 | 0.00 | 88 | 1029.9 |
| 20260509091538 | 13 | 235 | 0.0 | 6.4 | 0.00 | 0.00 | 0.00 | 87 | 1029.7 |
| 20260509090029 | 13 | 230 | 1.6 | 6.4 | 0.00 | 0.00 | 0.00 | 87 | 1029.7 |
| 20260509084530 | 14 | 213 | 0.0 | 4.8 | 0.00 | 0.00 | 0.00 | 88 | 1029.4 |
| 20260509083028 | 14 | 246 | 3.2 | 8.0 | 0.00 | 0.00 | 0.00 | 88 | 1029.4 |
| 20260509081522 | 14 | 229 | 0.0 | 9.7 | 0.00 | 0.00 | 0.00 | 88 | 1029.2 |
| 20260509080029 | 14 | 239 | 1.6 | 4.8 | 0.00 | 0.00 | 0.00 | 87 | 1029.1 |
| 20260509074517 | 14 | 231 | 1.6 | 9.7 | 0.00 | 0.00 | 0.00 | 87 | 1028.8 |
| 20260509073039 | 14 | 259 | 1.6 | 11.3 | 0.00 | 0.00 | 0.00 | 87 | 1028.5 |